sensor_id;sensor_type;location;lat;lon;timestamp;temperature;humidity
36594;DHT22;22603;47.900;8.146;2024-03-22T00:01:56;5.90;99.90
36594;DHT22;22603;47.900;8.146;2024-03-22T00:04:42;5.90;99.90
36594;DHT22;22603;47.900;8.146;2024-03-22T00:07:27;5.80;99.90
36594;DHT22;22603;47.900;8.146;2024-03-22T00:10:13;5.80;99.90
36594;DHT22;22603;47.900;8.146;2024-03-22T00:12:58;5.80;99.90
36594;DHT22;22603;47.900;8.146;2024-03-22T00:15:45;5.70;99.90
36594;DHT22;22603;47.900;8.146;2024-03-22T00:18:30;5.70;99.90
36594;DHT22;22603;47.900;8.146;2024-03-22T00:21:16;5.60;99.90
36594;DHT22;22603;47.900;8.146;2024-03-22T00:24:00;5.70;99.90
36594;DHT22;22603;47.900;8.146;2024-03-22T00:26:46;5.70;99.90
36594;DHT22;22603;47.900;8.146;2024-03-22T00:29:31;5.60;99.90
36594;DHT22;22603;47.900;8.146;2024-03-22T00:32:18;5.50;99.90
36594;DHT22;22603;47.900;8.146;2024-03-22T00:35:04;5.50;99.90
36594;DHT22;22603;47.900;8.146;2024-03-22T00:37:49;5.50;99.90
36594;DHT22;22603;47.900;8.146;2024-03-22T00:40:34;5.50;99.90
36594;DHT22;22603;47.900;8.146;2024-03-22T00:43:19;5.40;99.90
36594;DHT22;22603;47.900;8.146;2024-03-22T00:46:05;5.50;99.90
36594;DHT22;22603;47.900;8.146;2024-03-22T00:48:51;5.50;99.90
36594;DHT22;22603;47.900;8.146;2024-03-22T00:51:37;5.50;99.90
36594;DHT22;22603;47.900;8.146;2024-03-22T00:54:22;5.40;99.90
36594;DHT22;22603;47.900;8.146;2024-03-22T00:57:08;5.40;99.90
36594;DHT22;22603;47.900;8.146;2024-03-22T00:59:52;5.40;99.90
36594;DHT22;22603;47.900;8.146;2024-03-22T01:02:38;5.40;99.90
36594;DHT22;22603;47.900;8.146;2024-03-22T01:05:24;5.40;99.90
36594;DHT22;22603;47.900;8.146;2024-03-22T01:08:10;5.30;99.90
36594;DHT22;22603;47.900;8.146;2024-03-22T01:10:55;5.20;99.90
36594;DHT22;22603;47.900;8.146;2024-03-22T01:13:41;5.20;99.90
36594;DHT22;22603;47.900;8.146;2024-03-22T01:16:26;5.10;99.90
36594;DHT22;22603;47.900;8.146;2024-03-22T01:19:11;5.00;99.90
36594;DHT22;22603;47.900;8.146;2024-03-22T01:21:57;5.00;99.90
36594;DHT22;22603;47.900;8.146;2024-03-22T01:24:43;4.90;99.90
36594;DHT22;22603;47.900;8.146;2024-03-22T01:27:28;5.00;99.90
36594;DHT22;22603;47.900;8.146;2024-03-22T01:30:14;4.90;99.90
36594;DHT22;22603;47.900;8.146;2024-03-22T01:32:59;4.80;99.90
36594;DHT22;22603;47.900;8.146;2024-03-22T01:35:45;4.90;99.90
36594;DHT22;22603;47.900;8.146;2024-03-22T01:38:31;4.90;99.90
36594;DHT22;22603;47.900;8.146;2024-03-22T01:41:17;5.00;99.90
36594;DHT22;22603;47.900;8.146;2024-03-22T01:44:02;4.90;99.90
36594;DHT22;22603;47.900;8.146;2024-03-22T01:46:48;4.90;99.90
36594;DHT22;22603;47.900;8.146;2024-03-22T01:49:33;4.90;99.90
36594;DHT22;22603;47.900;8.146;2024-03-22T01:52:19;4.90;99.90
36594;DHT22;22603;47.900;8.146;2024-03-22T01:55:07;4.80;99.90
36594;DHT22;22603;47.900;8.146;2024-03-22T01:57:53;4.80;99.90
36594;DHT22;22603;47.900;8.146;2024-03-22T02:00:38;4.90;99.90
36594;DHT22;22603;47.900;8.146;2024-03-22T02:03:24;4.80;99.90
36594;DHT22;22603;47.900;8.146;2024-03-22T02:06:09;4.80;99.90
36594;DHT22;22603;47.900;8.146;2024-03-22T02:08:56;4.80;99.90
36594;DHT22;22603;47.900;8.146;2024-03-22T02:11:43;4.80;99.90
36594;DHT22;22603;47.900;8.146;2024-03-22T02:14:28;4.80;99.90
36594;DHT22;22603;47.900;8.146;2024-03-22T02:17:13;4.90;99.90
36594;DHT22;22603;47.900;8.146;2024-03-22T02:19:59;4.80;99.90
36594;DHT22;22603;47.900;8.146;2024-03-22T02:22:44;4.80;99.90
36594;DHT22;22603;47.900;8.146;2024-03-22T02:25:32;4.80;99.90
36594;DHT22;22603;47.900;8.146;2024-03-22T02:28:17;4.80;99.90
36594;DHT22;22603;47.900;8.146;2024-03-22T02:31:03;4.60;99.90
36594;DHT22;22603;47.900;8.146;2024-03-22T02:33:48;4.60;99.90
36594;DHT22;22603;47.900;8.146;2024-03-22T02:36:34;4.50;99.90
36594;DHT22;22603;47.900;8.146;2024-03-22T02:39:20;4.50;99.90
36594;DHT22;22603;47.900;8.146;2024-03-22T02:42:08;4.40;99.90
36594;DHT22;22603;47.900;8.146;2024-03-22T02:44:53;4.30;99.90
36594;DHT22;22603;47.900;8.146;2024-03-22T02:47:38;4.20;99.90
36594;DHT22;22603;47.900;8.146;2024-03-22T02:50:24;4.10;99.90
36594;DHT22;22603;47.900;8.146;2024-03-22T02:53:10;4.00;99.90
36594;DHT22;22603;47.900;8.146;2024-03-22T02:55:55;4.00;99.90
36594;DHT22;22603;47.900;8.146;2024-03-22T02:58:42;4.00;99.90
36594;DHT22;22603;47.900;8.146;2024-03-22T03:01:27;3.90;99.90
36594;DHT22;22603;47.900;8.146;2024-03-22T03:04:13;3.80;99.90
36594;DHT22;22603;47.900;8.146;2024-03-22T03:06:58;3.90;99.90
36594;DHT22;22603;47.900;8.146;2024-03-22T03:09:44;3.90;99.90
36594;DHT22;22603;47.900;8.146;2024-03-22T03:12:28;4.00;99.90
36594;DHT22;22603;47.900;8.146;2024-03-22T03:15:16;4.10;99.90
36594;DHT22;22603;47.900;8.146;2024-03-22T03:18:00;4.10;99.90
36594;DHT22;22603;47.900;8.146;2024-03-22T03:20:46;4.20;99.90
36594;DHT22;22603;47.900;8.146;2024-03-22T03:23:31;4.20;99.90
36594;DHT22;22603;47.900;8.146;2024-03-22T03:26:17;4.30;99.90
36594;DHT22;22603;47.900;8.146;2024-03-22T03:29:02;4.30;99.90
36594;DHT22;22603;47.900;8.146;2024-03-22T03:31:49;4.40;99.90
36594;DHT22;22603;47.900;8.146;2024-03-22T03:34:35;4.40;99.90
36594;DHT22;22603;47.900;8.146;2024-03-22T03:37:20;4.50;99.90
36594;DHT22;22603;47.900;8.146;2024-03-22T03:40:07;4.40;99.90
36594;DHT22;22603;47.900;8.146;2024-03-22T03:42:52;4.40;99.90
36594;DHT22;22603;47.900;8.146;2024-03-22T03:45:38;4.40;99.90
36594;DHT22;22603;47.900;8.146;2024-03-22T03:48:24;4.40;99.90
36594;DHT22;22603;47.900;8.146;2024-03-22T03:51:10;4.50;99.90
36594;DHT22;22603;47.900;8.146;2024-03-22T03:53:54;4.50;99.90
36594;DHT22;22603;47.900;8.146;2024-03-22T03:56:40;4.50;99.90
36594;DHT22;22603;47.900;8.146;2024-03-22T03:59:25;4.50;99.90
36594;DHT22;22603;47.900;8.146;2024-03-22T04:02:11;4.60;99.90
36594;DHT22;22603;47.900;8.146;2024-03-22T04:04:57;4.60;99.90
36594;DHT22;22603;47.900;8.146;2024-03-22T04:07:46;4.60;99.90
36594;DHT22;22603;47.900;8.146;2024-03-22T04:10:31;4.60;99.90
36594;DHT22;22603;47.900;8.146;2024-03-22T04:13:17;4.60;99.90
36594;DHT22;22603;47.900;8.146;2024-03-22T04:16:02;4.60;99.90
36594;DHT22;22603;47.900;8.146;2024-03-22T04:18:47;4.60;99.90
36594;DHT22;22603;47.900;8.146;2024-03-22T04:21:34;4.60;99.90
36594;DHT22;22603;47.900;8.146;2024-03-22T04:24:19;4.60;99.90
36594;DHT22;22603;47.900;8.146;2024-03-22T04:27:04;4.60;99.90
36594;DHT22;22603;47.900;8.146;2024-03-22T04:29:52;4.60;99.90
36594;DHT22;22603;47.900;8.146;2024-03-22T04:32:36;4.70;99.90
36594;DHT22;22603;47.900;8.146;2024-03-22T04:35:22;4.70;99.90
36594;DHT22;22603;47.900;8.146;2024-03-22T04:38:08;4.70;99.90
36594;DHT22;22603;47.900;8.146;2024-03-22T04:40:55;4.70;99.90
36594;DHT22;22603;47.900;8.146;2024-03-22T04:43:42;4.80;99.90
36594;DHT22;22603;47.900;8.146;2024-03-22T04:46:28;4.90;99.90
36594;DHT22;22603;47.900;8.146;2024-03-22T04:49:14;4.80;99.90
36594;DHT22;22603;47.900;8.146;2024-03-22T04:51:59;4.80;99.90
36594;DHT22;22603;47.900;8.146;2024-03-22T04:54:46;4.80;99.90
36594;DHT22;22603;47.900;8.146;2024-03-22T04:57:31;4.90;99.90
36594;DHT22;22603;47.900;8.146;2024-03-22T05:00:18;4.80;99.90
36594;DHT22;22603;47.900;8.146;2024-03-22T05:03:03;4.90;99.90
36594;DHT22;22603;47.900;8.146;2024-03-22T05:05:50;4.90;99.90
36594;DHT22;22603;47.900;8.146;2024-03-22T05:08:34;4.90;99.90
36594;DHT22;22603;47.900;8.146;2024-03-22T05:11:21;5.00;99.90
36594;DHT22;22603;47.900;8.146;2024-03-22T05:14:06;5.00;99.90
36594;DHT22;22603;47.900;8.146;2024-03-22T05:16:53;5.00;99.90
36594;DHT22;22603;47.900;8.146;2024-03-22T05:19:38;5.00;99.90
36594;DHT22;22603;47.900;8.146;2024-03-22T05:22:24;4.90;99.90
36594;DHT22;22603;47.900;8.146;2024-03-22T05:25:09;4.90;99.90
36594;DHT22;22603;47.900;8.146;2024-03-22T05:27:58;5.00;99.90
36594;DHT22;22603;47.900;8.146;2024-03-22T05:30:44;5.00;99.90
36594;DHT22;22603;47.900;8.146;2024-03-22T05:33:28;5.00;99.90
36594;DHT22;22603;47.900;8.146;2024-03-22T05:36:14;5.00;99.90
36594;DHT22;22603;47.900;8.146;2024-03-22T05:39:00;5.10;99.90
36594;DHT22;22603;47.900;8.146;2024-03-22T05:41:45;5.10;99.90
36594;DHT22;22603;47.900;8.146;2024-03-22T05:44:31;5.00;99.90
36594;DHT22;22603;47.900;8.146;2024-03-22T05:47:17;5.10;99.90
36594;DHT22;22603;47.900;8.146;2024-03-22T05:50:04;5.10;99.90
36594;DHT22;22603;47.900;8.146;2024-03-22T05:52:51;5.10;99.90
36594;DHT22;22603;47.900;8.146;2024-03-22T05:55:35;5.20;99.90
36594;DHT22;22603;47.900;8.146;2024-03-22T05:58:21;5.20;99.90
36594;DHT22;22603;47.900;8.146;2024-03-22T06:01:07;5.20;99.90
36594;DHT22;22603;47.900;8.146;2024-03-22T06:03:53;5.30;99.90
36594;DHT22;22603;47.900;8.146;2024-03-22T06:06:38;5.40;99.90
36594;DHT22;22603;47.900;8.146;2024-03-22T06:09:24;5.40;99.90
36594;DHT22;22603;47.900;8.146;2024-03-22T06:12:18;5.50;99.90
36594;DHT22;22603;47.900;8.146;2024-03-22T06:15:07;5.60;99.90
36594;DHT22;22603;47.900;8.146;2024-03-22T06:17:53;5.60;99.90
36594;DHT22;22603;47.900;8.146;2024-03-22T06:20:39;5.70;99.90
36594;DHT22;22603;47.900;8.146;2024-03-22T06:23:24;5.80;99.90
36594;DHT22;22603;47.900;8.146;2024-03-22T06:26:10;5.80;99.90
36594;DHT22;22603;47.900;8.146;2024-03-22T06:28:54;5.90;99.90
36594;DHT22;22603;47.900;8.146;2024-03-22T06:31:40;6.00;99.90
36594;DHT22;22603;47.900;8.146;2024-03-22T06:34:26;6.10;99.90
36594;DHT22;22603;47.900;8.146;2024-03-22T06:37:12;6.20;99.90
36594;DHT22;22603;47.900;8.146;2024-03-22T06:39:57;6.30;99.90
36594;DHT22;22603;47.900;8.146;2024-03-22T06:42:43;6.40;99.90
36594;DHT22;22603;47.900;8.146;2024-03-22T06:45:28;6.40;99.90
36594;DHT22;22603;47.900;8.146;2024-03-22T06:48:14;6.40;99.90
36594;DHT22;22603;47.900;8.146;2024-03-22T06:51:00;6.50;99.90
36594;DHT22;22603;47.900;8.146;2024-03-22T06:53:47;6.70;99.90
36594;DHT22;22603;47.900;8.146;2024-03-22T06:56:32;6.80;99.90
36594;DHT22;22603;47.900;8.146;2024-03-22T06:59:18;7.00;99.90
36594;DHT22;22603;47.900;8.146;2024-03-22T07:02:03;7.00;99.90
36594;DHT22;22603;47.900;8.146;2024-03-22T07:04:49;6.80;99.90
36594;DHT22;22603;47.900;8.146;2024-03-22T07:07:35;6.90;99.90
36594;DHT22;22603;47.900;8.146;2024-03-22T07:10:21;6.80;99.90
36594;DHT22;22603;47.900;8.146;2024-03-22T07:13:06;7.10;99.90
36594;DHT22;22603;47.900;8.146;2024-03-22T07:15:52;7.30;99.90
36594;DHT22;22603;47.900;8.146;2024-03-22T07:18:37;8.10;99.90
36594;DHT22;22603;47.900;8.146;2024-03-22T07:21:23;8.60;99.90
36594;DHT22;22603;47.900;8.146;2024-03-22T07:24:09;8.70;99.90
36594;DHT22;22603;47.900;8.146;2024-03-22T07:26:55;9.50;99.90
36594;DHT22;22603;47.900;8.146;2024-03-22T07:29:40;10.00;99.90
36594;DHT22;22603;47.900;8.146;2024-03-22T07:32:25;10.80;99.90
36594;DHT22;22603;47.900;8.146;2024-03-22T07:35:10;10.90;99.90
36594;DHT22;22603;47.900;8.146;2024-03-22T07:37:56;11.10;99.90
36594;DHT22;22603;47.900;8.146;2024-03-22T07:40:42;11.60;99.90
36594;DHT22;22603;47.900;8.146;2024-03-22T07:43:28;12.10;99.90
36594;DHT22;22603;47.900;8.146;2024-03-22T07:46:14;11.50;99.90
36594;DHT22;22603;47.900;8.146;2024-03-22T07:48:59;10.80;99.90
36594;DHT22;22603;47.900;8.146;2024-03-22T07:51:45;11.40;99.90
36594;DHT22;22603;47.900;8.146;2024-03-22T07:54:31;12.60;99.90
36594;DHT22;22603;47.900;8.146;2024-03-22T07:57:17;13.80;99.90
36594;DHT22;22603;47.900;8.146;2024-03-22T08:00:06;13.90;99.90
36594;DHT22;22603;47.900;8.146;2024-03-22T08:02:51;13.80;99.90
36594;DHT22;22603;47.900;8.146;2024-03-22T08:05:37;12.80;99.90
36594;DHT22;22603;47.900;8.146;2024-03-22T08:08:22;11.90;99.90
36594;DHT22;22603;47.900;8.146;2024-03-22T08:11:08;12.70;99.90
36594;DHT22;22603;47.900;8.146;2024-03-22T08:13:55;14.10;99.90
36594;DHT22;22603;47.900;8.146;2024-03-22T08:16:46;15.20;99.90
36594;DHT22;22603;47.900;8.146;2024-03-22T08:19:31;16.80;99.90
36594;DHT22;22603;47.900;8.146;2024-03-22T08:22:16;16.50;99.90
36594;DHT22;22603;47.900;8.146;2024-03-22T08:25:01;16.00;99.90
36594;DHT22;22603;47.900;8.146;2024-03-22T08:27:48;14.80;99.90
36594;DHT22;22603;47.900;8.146;2024-03-22T08:30:37;14.20;99.90
36594;DHT22;22603;47.900;8.146;2024-03-22T08:33:23;14.40;99.90
36594;DHT22;22603;47.900;8.146;2024-03-22T08:36:08;14.70;99.90
36594;DHT22;22603;47.900;8.146;2024-03-22T08:38:54;14.40;99.90
36594;DHT22;22603;47.900;8.146;2024-03-22T08:41:38;15.00;99.90
36594;DHT22;22603;47.900;8.146;2024-03-22T08:44:25;16.40;99.90
36594;DHT22;22603;47.900;8.146;2024-03-22T08:47:11;17.70;99.90
36594;DHT22;22603;47.900;8.146;2024-03-22T08:49:57;17.70;99.90
36594;DHT22;22603;47.900;8.146;2024-03-22T08:52:42;16.90;99.90
36594;DHT22;22603;47.900;8.146;2024-03-22T08:55:27;16.90;99.90
36594;DHT22;22603;47.900;8.146;2024-03-22T08:58:13;17.70;99.90
36594;DHT22;22603;47.900;8.146;2024-03-22T09:00:59;19.40;99.90
36594;DHT22;22603;47.900;8.146;2024-03-22T09:03:45;20.20;99.90
36594;DHT22;22603;47.900;8.146;2024-03-22T09:06:31;18.50;99.90
36594;DHT22;22603;47.900;8.146;2024-03-22T09:09:15;18.10;99.90
36594;DHT22;22603;47.900;8.146;2024-03-22T09:12:02;18.60;99.90
36594;DHT22;22603;47.900;8.146;2024-03-22T09:14:47;19.30;99.90
36594;DHT22;22603;47.900;8.146;2024-03-22T09:17:33;19.10;99.90
36594;DHT22;22603;47.900;8.146;2024-03-22T09:20:19;18.50;99.90
36594;DHT22;22603;47.900;8.146;2024-03-22T09:23:05;18.20;99.90
36594;DHT22;22603;47.900;8.146;2024-03-22T09:25:49;18.50;99.90
36594;DHT22;22603;47.900;8.146;2024-03-22T09:28:35;18.70;99.90
36594;DHT22;22603;47.900;8.146;2024-03-22T09:31:20;19.10;99.90
36594;DHT22;22603;47.900;8.146;2024-03-22T09:34:06;20.70;99.90
36594;DHT22;22603;47.900;8.146;2024-03-22T09:36:52;21.30;99.90
36594;DHT22;22603;47.900;8.146;2024-03-22T09:39:38;20.80;99.90
36594;DHT22;22603;47.900;8.146;2024-03-22T09:42:23;21.00;99.90
36594;DHT22;22603;47.900;8.146;2024-03-22T09:45:11;22.00;99.90
36594;DHT22;22603;47.900;8.146;2024-03-22T09:47:57;22.40;99.90
36594;DHT22;22603;47.900;8.146;2024-03-22T09:50:44;21.70;99.90
36594;DHT22;22603;47.900;8.146;2024-03-22T09:53:32;22.70;99.90
36594;DHT22;22603;47.900;8.146;2024-03-22T09:56:21;23.80;99.90
36594;DHT22;22603;47.900;8.146;2024-03-22T09:59:06;23.30;99.90
36594;DHT22;22603;47.900;8.146;2024-03-22T10:01:52;22.50;99.90
36594;DHT22;22603;47.900;8.146;2024-03-22T10:04:39;22.10;99.90
36594;DHT22;22603;47.900;8.146;2024-03-22T10:07:24;23.30;99.90
36594;DHT22;22603;47.900;8.146;2024-03-22T10:10:12;23.00;99.90
36594;DHT22;22603;47.900;8.146;2024-03-22T10:13:00;23.70;99.90
36594;DHT22;22603;47.900;8.146;2024-03-22T10:15:46;24.30;99.90
36594;DHT22;22603;47.900;8.146;2024-03-22T10:18:32;22.90;99.90
36594;DHT22;22603;47.900;8.146;2024-03-22T10:21:19;23.20;99.90
36594;DHT22;22603;47.900;8.146;2024-03-22T10:24:05;22.90;99.90
36594;DHT22;22603;47.900;8.146;2024-03-22T10:26:52;23.10;99.90
36594;DHT22;22603;47.900;8.146;2024-03-22T10:29:37;23.00;99.90
36594;DHT22;22603;47.900;8.146;2024-03-22T10:32:23;23.50;99.90
36594;DHT22;22603;47.900;8.146;2024-03-22T10:35:12;24.30;99.90
36594;DHT22;22603;47.900;8.146;2024-03-22T10:37:58;24.60;99.90
36594;DHT22;22603;47.900;8.146;2024-03-22T10:40:44;24.60;99.90
36594;DHT22;22603;47.900;8.146;2024-03-22T10:43:32;24.80;99.90
36594;DHT22;22603;47.900;8.146;2024-03-22T10:46:20;24.70;99.90
36594;DHT22;22603;47.900;8.146;2024-03-22T10:49:06;24.70;99.90
36594;DHT22;22603;47.900;8.146;2024-03-22T10:51:54;24.50;99.90
36594;DHT22;22603;47.900;8.146;2024-03-22T10:54:45;24.50;99.90
36594;DHT22;22603;47.900;8.146;2024-03-22T10:57:31;23.60;99.90
36594;DHT22;22603;47.900;8.146;2024-03-22T11:00:29;23.20;99.90
36594;DHT22;22603;47.900;8.146;2024-03-22T11:03:14;24.00;99.90
36594;DHT22;22603;47.900;8.146;2024-03-22T11:06:00;24.20;99.90
36594;DHT22;22603;47.900;8.146;2024-03-22T11:08:50;24.40;99.90
36594;DHT22;22603;47.900;8.146;2024-03-22T11:11:36;24.70;99.90
36594;DHT22;22603;47.900;8.146;2024-03-22T11:14:22;24.30;99.90
36594;DHT22;22603;47.900;8.146;2024-03-22T11:17:10;24.90;99.90
36594;DHT22;22603;47.900;8.146;2024-03-22T11:19:55;25.10;99.90
36594;DHT22;22603;47.900;8.146;2024-03-22T11:22:41;24.90;99.90
36594;DHT22;22603;47.900;8.146;2024-03-22T11:25:26;23.70;99.90
36594;DHT22;22603;47.900;8.146;2024-03-22T11:28:12;23.60;99.90
36594;DHT22;22603;47.900;8.146;2024-03-22T11:30:57;24.00;99.90
36594;DHT22;22603;47.900;8.146;2024-03-22T11:33:46;23.70;99.90
36594;DHT22;22603;47.900;8.146;2024-03-22T11:36:31;23.00;99.90
36594;DHT22;22603;47.900;8.146;2024-03-22T11:39:17;23.00;99.90
36594;DHT22;22603;47.900;8.146;2024-03-22T11:42:04;23.40;99.90
36594;DHT22;22603;47.900;8.146;2024-03-22T11:44:51;23.20;99.90
36594;DHT22;22603;47.900;8.146;2024-03-22T11:47:35;23.60;99.90
36594;DHT22;22603;47.900;8.146;2024-03-22T11:50:23;23.60;99.90
36594;DHT22;22603;47.900;8.146;2024-03-22T11:53:08;23.10;99.90
36594;DHT22;22603;47.900;8.146;2024-03-22T11:55:54;23.60;99.90
36594;DHT22;22603;47.900;8.146;2024-03-22T11:58:38;23.70;99.90
36594;DHT22;22603;47.900;8.146;2024-03-22T12:01:24;24.10;99.90
36594;DHT22;22603;47.900;8.146;2024-03-22T12:04:09;24.10;99.90
36594;DHT22;22603;47.900;8.146;2024-03-22T12:07:01;24.00;99.90
36594;DHT22;22603;47.900;8.146;2024-03-22T12:09:45;23.60;99.90
36594;DHT22;22603;47.900;8.146;2024-03-22T12:12:32;23.80;99.90
36594;DHT22;22603;47.900;8.146;2024-03-22T12:15:16;23.70;99.90
36594;DHT22;22603;47.900;8.146;2024-03-22T12:18:03;23.70;99.90
36594;DHT22;22603;47.900;8.146;2024-03-22T12:20:48;23.70;99.90
36594;DHT22;22603;47.900;8.146;2024-03-22T12:23:35;23.50;99.90
36594;DHT22;22603;47.900;8.146;2024-03-22T12:26:20;23.20;99.90
36594;DHT22;22603;47.900;8.146;2024-03-22T12:29:06;22.70;99.90
36594;DHT22;22603;47.900;8.146;2024-03-22T12:31:52;23.00;99.90
36594;DHT22;22603;47.900;8.146;2024-03-22T12:34:38;23.10;99.90
36594;DHT22;22603;47.900;8.146;2024-03-22T12:37:23;22.70;99.90
36594;DHT22;22603;47.900;8.146;2024-03-22T12:40:11;23.30;99.90
36594;DHT22;22603;47.900;8.146;2024-03-22T12:42:58;23.40;99.90
36594;DHT22;22603;47.900;8.146;2024-03-22T12:45:43;22.70;99.90
36594;DHT22;22603;47.900;8.146;2024-03-22T12:48:28;22.80;99.90
36594;DHT22;22603;47.900;8.146;2024-03-22T12:51:13;22.80;99.90
36594;DHT22;22603;47.900;8.146;2024-03-22T12:53:59;22.70;99.90
36594;DHT22;22603;47.900;8.146;2024-03-22T12:56:46;22.90;99.90
36594;DHT22;22603;47.900;8.146;2024-03-22T12:59:32;22.40;99.90
36594;DHT22;22603;47.900;8.146;2024-03-22T13:02:17;22.60;99.90
36594;DHT22;22603;47.900;8.146;2024-03-22T13:05:03;22.30;99.90
36594;DHT22;22603;47.900;8.146;2024-03-22T13:07:48;22.20;99.90
36594;DHT22;22603;47.900;8.146;2024-03-22T13:10:34;22.20;99.90
36594;DHT22;22603;47.900;8.146;2024-03-22T13:13:20;22.00;99.90
36594;DHT22;22603;47.900;8.146;2024-03-22T13:16:06;21.70;99.90
36594;DHT22;22603;47.900;8.146;2024-03-22T13:18:51;22.00;99.90
36594;DHT22;22603;47.900;8.146;2024-03-22T13:21:37;21.70;99.90
36594;DHT22;22603;47.900;8.146;2024-03-22T13:24:22;21.70;99.90
36594;DHT22;22603;47.900;8.146;2024-03-22T13:27:09;21.80;99.90
36594;DHT22;22603;47.900;8.146;2024-03-22T13:29:55;21.80;99.90
36594;DHT22;22603;47.900;8.146;2024-03-22T13:32:41;21.20;99.90
36594;DHT22;22603;47.900;8.146;2024-03-22T13:35:26;21.00;99.90
36594;DHT22;22603;47.900;8.146;2024-03-22T13:38:12;21.00;99.90
36594;DHT22;22603;47.900;8.146;2024-03-22T13:40:58;20.60;99.90
36594;DHT22;22603;47.900;8.146;2024-03-22T13:43:44;20.50;99.90
36594;DHT22;22603;47.900;8.146;2024-03-22T13:46:31;20.20;99.90
36594;DHT22;22603;47.900;8.146;2024-03-22T13:49:19;20.20;99.90
36594;DHT22;22603;47.900;8.146;2024-03-22T13:52:05;20.20;99.90
36594;DHT22;22603;47.900;8.146;2024-03-22T13:54:51;20.40;99.90
36594;DHT22;22603;47.900;8.146;2024-03-22T13:57:35;20.30;99.90
36594;DHT22;22603;47.900;8.146;2024-03-22T14:00:21;20.50;99.90
36594;DHT22;22603;47.900;8.146;2024-03-22T14:03:10;20.60;99.90
36594;DHT22;22603;47.900;8.146;2024-03-22T14:05:56;20.50;99.90
36594;DHT22;22603;47.900;8.146;2024-03-22T14:08:41;20.30;99.90
36594;DHT22;22603;47.900;8.146;2024-03-22T14:11:29;20.50;99.90
36594;DHT22;22603;47.900;8.146;2024-03-22T14:14:15;20.40;99.90
36594;DHT22;22603;47.900;8.146;2024-03-22T14:17:01;19.90;99.90
36594;DHT22;22603;47.900;8.146;2024-03-22T14:19:47;19.40;99.90
36594;DHT22;22603;47.900;8.146;2024-03-22T14:22:33;19.30;99.90
36594;DHT22;22603;47.900;8.146;2024-03-22T14:25:17;19.30;99.90
36594;DHT22;22603;47.900;8.146;2024-03-22T14:28:04;19.50;99.90
36594;DHT22;22603;47.900;8.146;2024-03-22T14:30:49;19.60;99.90
36594;DHT22;22603;47.900;8.146;2024-03-22T14:33:35;19.40;99.90
36594;DHT22;22603;47.900;8.146;2024-03-22T14:36:21;19.50;99.90
36594;DHT22;22603;47.900;8.146;2024-03-22T14:39:07;19.60;99.90
36594;DHT22;22603;47.900;8.146;2024-03-22T14:41:52;19.50;99.90
36594;DHT22;22603;47.900;8.146;2024-03-22T14:44:39;19.60;99.90
36594;DHT22;22603;47.900;8.146;2024-03-22T14:47:24;19.60;99.90
36594;DHT22;22603;47.900;8.146;2024-03-22T14:50:10;19.50;99.90
36594;DHT22;22603;47.900;8.146;2024-03-22T14:52:57;19.20;99.90
36594;DHT22;22603;47.900;8.146;2024-03-22T14:55:51;19.60;99.90
36594;DHT22;22603;47.900;8.146;2024-03-22T14:58:36;19.70;99.90
36594;DHT22;22603;47.900;8.146;2024-03-22T15:01:23;19.60;99.90
36594;DHT22;22603;47.900;8.146;2024-03-22T15:04:08;18.50;99.90
36594;DHT22;22603;47.900;8.146;2024-03-22T15:06:53;18.60;99.90
36594;DHT22;22603;47.900;8.146;2024-03-22T15:09:39;19.30;99.90
36594;DHT22;22603;47.900;8.146;2024-03-22T15:12:26;19.30;99.90
36594;DHT22;22603;47.900;8.146;2024-03-22T15:15:11;19.50;99.90
36594;DHT22;22603;47.900;8.146;2024-03-22T15:17:57;19.70;99.90
36594;DHT22;22603;47.900;8.146;2024-03-22T15:20:42;19.20;99.90
36594;DHT22;22603;47.900;8.146;2024-03-22T15:23:28;18.80;99.90
36594;DHT22;22603;47.900;8.146;2024-03-22T15:26:16;18.60;99.90
36594;DHT22;22603;47.900;8.146;2024-03-22T15:29:01;18.20;99.90
36594;DHT22;22603;47.900;8.146;2024-03-22T15:31:46;18.10;99.90
36594;DHT22;22603;47.900;8.146;2024-03-22T15:34:31;17.70;99.90
36594;DHT22;22603;47.900;8.146;2024-03-22T15:37:17;17.60;99.90
36594;DHT22;22603;47.900;8.146;2024-03-22T15:40:01;17.30;99.90
36594;DHT22;22603;47.900;8.146;2024-03-22T15:42:50;17.30;99.90
36594;DHT22;22603;47.900;8.146;2024-03-22T15:45:35;17.40;99.90
36594;DHT22;22603;47.900;8.146;2024-03-22T15:48:21;17.40;99.90
36594;DHT22;22603;47.900;8.146;2024-03-22T15:51:07;17.40;99.90
36594;DHT22;22603;47.900;8.146;2024-03-22T15:53:53;17.30;99.90
36594;DHT22;22603;47.900;8.146;2024-03-22T15:56:38;17.20;99.90
36594;DHT22;22603;47.900;8.146;2024-03-22T15:59:25;17.40;99.90
36594;DHT22;22603;47.900;8.146;2024-03-22T16:02:10;17.70;99.90
36594;DHT22;22603;47.900;8.146;2024-03-22T16:04:56;17.90;99.90
36594;DHT22;22603;47.900;8.146;2024-03-22T16:07:41;17.80;99.90
36594;DHT22;22603;47.900;8.146;2024-03-22T16:10:28;17.40;99.90
36594;DHT22;22603;47.900;8.146;2024-03-22T16:13:13;17.50;99.90
36594;DHT22;22603;47.900;8.146;2024-03-22T16:16:00;17.60;99.90
36594;DHT22;22603;47.900;8.146;2024-03-22T16:18:45;17.90;99.90
36594;DHT22;22603;47.900;8.146;2024-03-22T16:21:31;18.00;99.90
36594;DHT22;22603;47.900;8.146;2024-03-22T16:24:15;18.10;99.90
36594;DHT22;22603;47.900;8.146;2024-03-22T16:27:04;17.70;99.90
36594;DHT22;22603;47.900;8.146;2024-03-22T16:29:49;17.60;99.90
36594;DHT22;22603;47.900;8.146;2024-03-22T16:32:36;17.70;99.90
36594;DHT22;22603;47.900;8.146;2024-03-22T16:35:21;17.50;99.90
36594;DHT22;22603;47.900;8.146;2024-03-22T16:38:07;17.40;99.90
36594;DHT22;22603;47.900;8.146;2024-03-22T16:40:51;17.30;99.90
36594;DHT22;22603;47.900;8.146;2024-03-22T16:43:37;16.70;99.90
36594;DHT22;22603;47.900;8.146;2024-03-22T16:46:22;16.50;99.90
36594;DHT22;22603;47.900;8.146;2024-03-22T16:49:09;16.50;99.90
36594;DHT22;22603;47.900;8.146;2024-03-22T16:51:55;16.40;99.90
36594;DHT22;22603;47.900;8.146;2024-03-22T16:54:40;16.20;99.90
36594;DHT22;22603;47.900;8.146;2024-03-22T16:57:26;16.00;99.90
36594;DHT22;22603;47.900;8.146;2024-03-22T17:00:12;15.80;99.90
36594;DHT22;22603;47.900;8.146;2024-03-22T17:02:59;15.50;99.90
36594;DHT22;22603;47.900;8.146;2024-03-22T17:05:45;15.30;99.90
36594;DHT22;22603;47.900;8.146;2024-03-22T17:08:31;15.10;99.90
36594;DHT22;22603;47.900;8.146;2024-03-22T17:11:16;14.90;99.90
36594;DHT22;22603;47.900;8.146;2024-03-22T17:14:02;14.60;99.90
36594;DHT22;22603;47.900;8.146;2024-03-22T17:16:47;14.40;99.90
36594;DHT22;22603;47.900;8.146;2024-03-22T17:19:35;14.10;99.90
36594;DHT22;22603;47.900;8.146;2024-03-22T17:22:21;14.00;99.90
36594;DHT22;22603;47.900;8.146;2024-03-22T17:25:07;13.90;99.90
36594;DHT22;22603;47.900;8.146;2024-03-22T17:27:53;14.00;99.90
36594;DHT22;22603;47.900;8.146;2024-03-22T17:30:39;13.90;99.90
36594;DHT22;22603;47.900;8.146;2024-03-22T17:33:25;13.70;99.90
36594;DHT22;22603;47.900;8.146;2024-03-22T17:36:09;13.50;99.90